Terminal Aerodrome Forecast
Issued by NWS

Home | Current Version | Previous Version | Graphics & Text | Print | Product List | Glossary On
Versions: 1 2 3 4 5 6 7 8 9 10 11 12 13 14 15 16 17 18 19 20 21
000
FTUS41 KCLE 221720
TAFFDY
TAF
KFDY 221720Z 2218/2318 20010KT P6SM BKN015
     FM222100 21010KT P6SM BKN045
     FM230300 20009KT 6SM BR OVC025
     FM230800 20010KT 3SM BR OVC009
     FM231600 24010KT P6SM OVC015=

USA.gov is the U.S. government's official web portal to all federal, state and local government web resources and services.